Time;durP1;ratioP1;P1;durP2;ratioP2;P2;SDS_P1;SDS_P2;PMS_P1;PMS_P2;Temp;Humidity;BMP_temperature;BMP_pressure;BME280_temperature;BME280_humidity;BME280_pressure;Samples;Min_cycle;Max_cycle;Signal;HPM_P1;HPM_P2
2022/12/07 00:02:26;;;;;;;4.57;1.70;;;21.10;47.30;;;;;;5052233;28;20211;-50
2022/12/07 00:04:56;;;;;;;4.65;2.00;;;21.10;47.30;;;;;;5051969;28;20199;-49
2022/12/07 00:07:27;;;;;;;5.72;1.60;;;21.10;47.30;;;;;;5052011;28;20191;-60
2022/12/07 00:09:59;;;;;;;5.68;1.80;;;21.10;47.20;;;;;;5052221;28;20203;-60
2022/12/07 00:12:30;;;;;;;4.22;1.70;;;21.10;47.10;;;;;;5039004;28;20204;-61
2022/12/07 00:15:01;;;;;;;4.68;1.73;;;21.10;47.10;;;;;;5051857;28;20219;-52
2022/12/07 00:17:33;;;;;;;3.65;1.77;;;21.10;47.10;;;;;;5051751;28;20184;-48
2022/12/07 00:20:04;;;;;;;4.93;1.65;;;21.20;47.00;;;;;;5052033;28;20199;-51
2022/12/07 00:22:35;;;;;;;4.43;1.88;;;21.10;46.90;;;;;;5046016;28;20660;-46
2022/12/07 00:25:08;;;;;;;5.53;1.75;;;21.20;47.00;;;;;;5041729;28;20203;-55
2022/12/07 00:27:39;;;;;;;4.47;2.00;;;21.20;46.90;;;;;;5052259;28;20567;-56
2022/12/07 00:30:11;;;;;;;5.63;1.60;;;21.20;46.90;;;;;;5051951;28;20206;-52
2022/12/07 00:32:42;;;;;;;4.47;2.33;;;21.20;46.80;;;;;;5063911;28;20202;-55
2022/12/07 00:35:13;;;;;;;5.55;2.40;;;21.20;46.70;;;;;;5052506;28;20207;-59
2022/12/07 00:37:44;;;;;;;6.68;2.55;;;21.20;46.70;;;;;;5063153;28;20192;-60
2022/12/07 00:40:17;;;;;;;5.38;2.38;;;21.20;46.60;;;;;;5060477;28;20207;-59
2022/12/07 00:42:51;;;;;;;5.30;2.20;;;21.20;46.60;;;;;;5050008;28;20218;-48
2022/12/07 00:45:21;;;;;;;6.07;2.50;;;21.20;47.20;;;;;;5049402;28;20200;-60
2022/12/07 00:47:52;;;;;;;3.53;2.08;;;21.20;46.60;;;;;;5050960;28;20195;-60
2022/12/07 00:50:23;;;;;;;5.88;2.17;;;21.20;46.60;;;;;;5051318;28;20684;-59
2022/12/07 00:52:54;;;;;;;7.03;2.10;;;21.20;46.60;;;;;;5050857;28;20207;-53
2022/12/07 00:55:26;;;;;;;5.22;2.17;;;21.20;46.70;;;;;;5054339;28;20561;-52
2022/12/07 00:57:57;;;;;;;4.82;1.85;;;21.20;46.70;;;;;;5062175;28;20214;-58
2022/12/07 01:00:27;;;;;;;7.03;2.40;;;21.30;46.70;;;;;;5051469;28;20195;-52
2022/12/07 01:02:58;;;;;;;3.83;1.65;;;21.30;46.60;;;;;;5050925;28;20203;-56
2022/12/07 01:05:29;;;;;;;5.55;2.03;;;21.30;46.60;;;;;;5051292;28;20705;-51
2022/12/07 01:08:00;;;;;;;3.35;1.90;;;21.30;46.50;;;;;;5050469;28;20196;-55
2022/12/07 01:10:33;;;;;;;4.65;1.77;;;21.30;46.40;;;;;;5050831;28;20199;-55
2022/12/07 01:13:03;;;;;;;4.18;1.70;;;21.30;46.30;;;;;;5050417;28;20223;-48
2022/12/07 01:15:34;;;;;;;6.28;2.25;;;21.30;46.40;;;;;;5050653;28;20382;-54
2022/12/07 01:18:05;;;;;;;4.03;1.75;;;21.30;46.40;;;;;;5051330;28;20664;-58
2022/12/07 01:20:35;;;;;;;4.28;1.67;;;21.30;46.30;;;;;;5050800;28;20203;-52
2022/12/07 01:23:06;;;;;;;4.68;1.92;;;21.30;46.30;;;;;;5049757;28;20199;-50
2022/12/07 01:25:39;;;;;;;3.70;2.13;;;21.30;46.20;;;;;;5063841;28;20540;-48
2022/12/07 01:28:09;;;;;;;5.05;2.00;;;21.30;46.10;;;;;;5062248;28;20195;-53
2022/12/07 01:30:40;;;;;;;3.67;1.45;;;21.30;46.10;;;;;;5049479;28;20575;-55
2022/12/07 01:33:11;;;;;;;4.53;1.60;;;21.30;46.00;;;;;;5056722;28;20237;-46
2022/12/07 01:35:42;;;;;;;4.57;1.75;;;21.30;46.00;;;;;;5069698;28;20553;-56
2022/12/07 01:38:13;;;;;;;9.63;1.98;;;21.40;46.10;;;;;;5061053;28;20187;-58
2022/12/07 01:40:45;;;;;;;4.40;1.67;;;21.30;46.00;;;;;;5050879;28;20577;-55
2022/12/07 01:43:21;;;;;;;5.00;2.10;;;21.40;46.10;;;;;;5050493;28;20669;-59
2022/12/07 01:45:51;;;;;;;3.25;1.80;;;21.40;46.00;;;;;;5049996;28;20202;-52
2022/12/07 01:48:27;;;;;;;6.38;1.90;;;21.40;46.10;;;;;;5049783;28;20214;-52
2022/12/07 01:51:03;;;;;;;5.50;2.00;;;21.40;46.00;;;;;;5067389;28;20222;-47
2022/12/07 01:53:36;;;;;;;5.43;1.67;;;21.40;45.90;;;;;;5058911;28;20225;-53
2022/12/07 01:56:13;;;;;;;4.70;1.80;;;21.40;45.90;;;;;;5050941;28;20195;-51
2022/12/07 01:58:44;;;;;;;4.70;1.90;;;21.40;45.80;;;;;;5049776;28;20698;-50
2022/12/07 02:01:16;;;;;;;3.92;1.63;;;21.40;45.90;;;;;;5050443;28;20306;-51
2022/12/07 02:03:47;;;;;;;3.22;1.45;;;21.40;45.80;;;;;;5041840;28;20250;-49
2022/12/07 02:06:23;;;;;;;4.05;1.70;;;21.40;45.80;;;;;;5050359;28;20199;-51
2022/12/07 02:08:54;;;;;;;4.70;1.83;;;21.40;45.80;;;;;;5049679;28;20199;-58
2022/12/07 02:11:26;;;;;;;4.63;1.58;;;21.40;45.80;;;;;;5049660;28;20219;-57
2022/12/07 02:13:58;;;;;;;4.05;1.33;;;21.40;45.80;;;;;;5050736;28;20230;-54
2022/12/07 02:16:37;;;;;;;4.30;1.88;;;21.50;45.70;;;;;;5057702;28;20243;-49
2022/12/07 02:19:41;;;;;;;5.13;1.85;;;21.40;45.50;;;;;;5049900;28;20192;-51
2022/12/07 02:22:32;;;;;;;3.75;2.17;;;21.50;45.50;;;;;;5046971;28;20215;-50
2022/12/07 02:25:15;;;;;;;10.52;3.13;;;21.40;45.40;;;;;;5030291;28;20210;-54
2022/12/07 02:27:54;;;;;;;6.68;2.75;;;21.50;45.40;;;;;;5044646;28;20203;-58
2022/12/07 02:30:30;;;;;;;6.90;2.63;;;21.40;45.30;;;;;;5049077;28;20195;-50
2022/12/07 02:33:05;;;;;;;6.10;2.35;;;21.50;45.30;;;;;;5053759;28;20191;-55
2022/12/07 02:35:42;;;;;;;7.30;3.15;;;21.50;45.80;;;;;;5069065;28;20202;-50
2022/12/07 02:38:18;;;;;;;7.75;4.13;;;21.40;45.20;;;;;;5048735;28;20190;-56
2022/12/07 02:40:54;;;;;;;6.32;3.28;;;21.50;45.20;;;;;;5047790;28;20234;-54
2022/12/07 02:43:28;;;;;;;6.78;3.30;;;21.50;45.20;;;;;;5049139;28;20203;-56
2022/12/07 02:46:05;;;;;;;5.38;2.90;;;21.50;45.20;;;;;;5050681;28;20508;-48
2022/12/07 02:48:38;;;;;;;8.02;3.85;;;21.50;45.20;;;;;;5052897;28;20195;-54
2022/12/07 02:51:09;;;;;;;7.03;3.10;;;21.50;45.00;;;;;;5054391;28;20238;-54
2022/12/07 02:53:41;;;;;;;5.82;3.35;;;21.50;45.00;;;;;;5059363;28;20693;-50
2022/12/07 02:56:23;;;;;;;4.68;2.92;;;21.50;45.00;;;;;;5072792;28;20198;-51
2022/12/07 02:59:04;;;;;;;7.00;3.40;;;21.50;44.90;;;;;;5063369;28;20202;-53
2022/12/07 03:01:49;;;;;;;6.43;3.38;;;21.60;45.00;;;;;;5052801;28;20222;-48
2022/12/07 03:04:41;;;;;;;6.68;3.20;;;21.60;45.00;;;;;;5053514;28;20452;-54
2022/12/07 03:07:21;;;;;;;5.57;3.13;;;21.60;44.90;;;;;;5053483;28;20191;-57
2022/12/07 03:09:58;;;;;;;7.07;3.30;;;21.60;45.00;;;;;;5053062;28;20195;-57
2022/12/07 03:12:38;;;;;;;7.35;3.20;;;21.60;45.20;;;;;;5033282;28;20226;-54
2022/12/07 03:15:12;;;;;;;7.40;3.60;;;21.60;45.20;;;;;;5070183;28;20288;-47
2022/12/07 03:17:48;;;;;;;6.03;2.97;;;21.60;45.20;;;;;;5072093;28;20198;-48
2022/12/07 03:20:22;;;;;;;5.75;2.85;;;21.70;45.10;;;;;;5033067;28;20211;-50
2022/12/07 03:22:55;;;;;;;7.75;2.97;;;21.70;45.00;;;;;;5041324;28;20192;-55
2022/12/07 03:25:26;;;;;;;6.18;2.90;;;21.70;44.90;;;;;;5059476;28;20207;-50
2022/12/07 03:27:59;;;;;;;6.85;3.17;;;21.70;44.90;;;;;;5072321;28;20198;-51
2022/12/07 03:30:35;;;;;;;6.57;3.03;;;21.70;44.90;;;;;;5052873;28;20187;-53
2022/12/07 03:33:13;;;;;;;4.40;2.33;;;21.70;44.80;;;;;;5052876;28;20198;-52
2022/12/07 03:35:46;;;;;;;6.10;3.05;;;21.70;44.90;;;;;;5072844;28;20226;-50
2022/12/07 03:38:22;;;;;;;7.28;2.88;;;21.70;44.80;;;;;;5070172;28;20210;-51
2022/12/07 03:40:59;;;;;;;5.47;2.72;;;21.70;44.70;;;;;;5052134;28;20698;-59
2022/12/07 03:43:31;;;;;;;4.82;2.80;;;21.70;44.70;;;;;;5036800;28;20183;-55
2022/12/07 03:46:11;;;;;;;4.75;2.42;;;21.70;44.70;;;;;;5051490;28;20230;-50
2022/12/07 03:48:49;;;;;;;5.15;2.63;;;21.70;44.70;;;;;;5052592;28;20184;-57
2022/12/07 03:51:26;;;;;;;6.53;2.83;;;21.70;44.60;;;;;;5053130;28;20231;-56
2022/12/07 03:54:04;;;;;;;6.57;2.55;;;21.70;44.60;;;;;;5052354;28;20222;-47
2022/12/07 03:56:36;;;;;;;7.18;3.05;;;21.70;44.60;;;;;;5052763;28;20206;-57
2022/12/07 03:59:07;;;;;;;6.60;2.42;;;21.70;44.60;;;;;;5051614;28;20191;-48
2022/12/07 04:01:38;;;;;;;7.68;2.67;;;21.70;44.60;;;;;;5052370;28;20235;-47
2022/12/07 04:04:10;;;;;;;5.20;2.45;;;21.70;44.60;;;;;;5052630;28;20207;-51
2022/12/07 04:06:41;;;;;;;6.15;2.42;;;21.70;44.80;;;;;;5053108;28;20540;-50
2022/12/07 04:09:14;;;;;;;4.32;2.58;;;21.70;44.90;;;;;;5052441;28;20198;-49
2022/12/07 04:11:45;;;;;;;6.68;2.83;;;21.80;45.00;;;;;;5051810;28;20224;-52
2022/12/07 04:14:21;;;;;;;4.60;2.20;;;21.80;45.00;;;;;;5051988;28;20262;-49
2022/12/07 04:16:53;;;;;;;6.70;2.58;;;21.80;45.10;;;;;;5052285;28;20203;-57
2022/12/07 04:19:28;;;;;;;7.60;2.58;;;21.80;45.10;;;;;;5051007;28;20206;-49
2022/12/07 04:21:59;;;;;;;6.78;2.90;;;21.80;45.00;;;;;;5051562;28;20233;-47
2022/12/07 04:24:30;;;;;;;6.82;2.40;;;21.80;44.90;;;;;;5041742;28;20192;-51
2022/12/07 04:27:01;;;;;;;7.78;2.40;;;21.80;45.00;;;;;;5051425;28;20202;-59
2022/12/07 04:29:32;;;;;;;5.70;2.05;;;21.90;45.10;;;;;;5051598;28;20203;-59
2022/12/07 04:32:03;;;;;;;7.38;2.78;;;21.80;45.00;;;;;;5051674;28;20567;-49
2022/12/07 04:34:35;;;;;;;6.80;2.20;;;21.80;44.90;;;;;;5051689;28;20226;-58
2022/12/07 04:37:06;;;;;;;6.60;2.50;;;21.80;44.90;;;;;;5049780;28;20591;-57
2022/12/07 04:39:38;;;;;;;6.88;2.60;;;21.80;44.90;;;;;;5041759;28;20681;-56
2022/12/07 04:42:09;;;;;;;6.18;2.53;;;21.80;44.80;;;;;;5051340;28;20220;-57
2022/12/07 04:44:40;;;;;;;6.72;2.42;;;21.80;44.90;;;;;;5050151;28;20217;-56
2022/12/07 04:47:11;;;;;;;5.70;2.33;;;21.80;44.80;;;;;;5050797;28;20199;-58
2022/12/07 04:49:43;;;;;;;6.70;2.60;;;21.80;44.80;;;;;;5051586;28;20554;-57
2022/12/07 04:52:17;;;;;;;6.40;2.50;;;21.80;44.80;;;;;;5051534;28;20302;-53
2022/12/07 04:54:47;;;;;;;6.40;2.00;;;21.80;44.80;;;;;;5050083;28;20230;-57
2022/12/07 04:57:18;;;;;;;4.68;2.20;;;21.80;44.90;;;;;;5050711;28;20663;-57
2022/12/07 04:59:49;;;;;;;6.80;2.22;;;21.80;44.90;;;;;;5050987;28;20192;-53
2022/12/07 05:02:19;;;;;;;4.55;2.28;;;21.80;45.00;;;;;;5051279;28;20583;-52
2022/12/07 05:04:52;;;;;;;4.65;2.42;;;21.80;45.00;;;;;;5050463;28;20198;-52
2022/12/07 05:07:23;;;;;;;4.70;1.80;;;21.90;45.10;;;;;;5050627;28;20210;-54
2022/12/07 05:09:54;;;;;;;4.55;2.13;;;21.80;45.00;;;;;;5050155;28;20192;-56
2022/12/07 05:12:24;;;;;;;5.82;2.00;;;21.80;45.00;;;;;;5030523;28;20607;-51
2022/12/07 05:14:55;;;;;;;5.72;2.15;;;21.80;45.00;;;;;;5041190;28;20219;-57
2022/12/07 05:17:26;;;;;;;5.55;1.75;;;21.90;45.10;;;;;;5050899;28;20247;-59
2022/12/07 05:19:58;;;;;;;6.32;2.03;;;21.90;45.10;;;;;;5050445;28;20199;-52
2022/12/07 05:22:29;;;;;;;6.97;2.28;;;21.90;45.10;;;;;;5046586;28;20699;-53
2022/12/07 05:25:00;;;;;;;6.88;2.17;;;21.90;45.00;;;;;;5041342;28;20195;-54
2022/12/07 05:27:31;;;;;;;5.68;1.95;;;21.90;45.00;;;;;;5051315;28;20207;-49
2022/12/07 05:30:01;;;;;;;4.05;1.65;;;21.90;45.10;;;;;;5051032;28;20718;-59
2022/12/07 05:32:32;;;;;;;7.15;2.50;;;21.90;45.10;;;;;;5049797;28;20211;-56
2022/12/07 05:35:05;;;;;;;7.43;2.47;;;21.90;45.10;;;;;;5050858;28;20258;-58
2022/12/07 05:37:35;;;;;;;4.38;2.00;;;21.80;45.20;;;;;;5050069;28;20200;-57
2022/12/07 05:40:07;;;;;;;6.22;2.35;;;21.80;45.10;;;;;;5050632;28;20195;-53
2022/12/07 05:42:38;;;;;;;5.43;2.30;;;21.90;45.30;;;;;;5050939;28;20985;-58
2022/12/07 05:45:10;;;;;;;4.38;1.85;;;21.90;45.30;;;;;;5050093;28;20191;-54
2022/12/07 05:47:41;;;;;;;6.82;2.15;;;21.90;45.20;;;;;;5050255;28;20219;-58
2022/12/07 05:50:14;;;;;;;5.65;2.05;;;21.90;45.10;;;;;;5050579;28;20587;-58
2022/12/07 05:52:44;;;;;;;4.78;1.88;;;21.90;45.10;;;;;;5050160;28;20259;-59
2022/12/07 05:55:15;;;;;;;4.47;1.52;;;21.90;45.10;;;;;;5049517;28;20310;-54
2022/12/07 05:59:22;;;;;;;5.18;2.00;;;21.90;45.10;;;;;;5050366;28;20199;-53
2022/12/07 06:00:35;;;;;;;5.90;2.25;;;21.90;45.20;;;;;;5049327;28;20196;-58
2022/12/07 06:03:07;;;;;;;6.03;2.10;;;21.80;45.80;;;;;;5049930;28;20217;-55
2022/12/07 06:05:39;;;;;;;4.60;1.75;;;21.90;45.30;;;;;;5050104;28;20195;-56
2022/12/07 06:08:10;;;;;;;6.22;1.90;;;21.80;45.20;;;;;;5050372;28;20655;-56
2022/12/07 06:10:41;;;;;;;5.70;2.00;;;21.80;45.20;;;;;;5050152;28;20591;-54
2022/12/07 06:13:10;;;;;;;4.50;2.30;;;21.90;45.30;;;;;;5049631;28;20282;-57
2022/12/07 06:15:41;;;;;;;3.67;2.13;;;21.90;45.30;;;;;;5049473;28;20219;-57
2022/12/07 06:18:12;;;;;;;5.40;2.17;;;21.80;45.30;;;;;;5050411;28;20663;-53
2022/12/07 06:20:44;;;;;;;8.13;3.72;;;21.80;45.30;;;;;;5049692;28;20191;-58
2022/12/07 06:23:15;;;;;;;11.20;4.15;;;21.80;45.20;;;;;;5039392;28;20196;-57
2022/12/07 06:25:49;;;;;;;10.35;3.92;;;21.80;45.20;;;;;;5043544;28;20606;-57
2022/12/07 06:28:20;;;;;;;8.30;3.65;;;21.80;45.20;;;;;;5050195;28;20670;-57
2022/12/07 06:30:59;;;;;;;8.88;3.70;;;21.80;45.20;;;;;;5050273;28;20192;-58
2022/12/07 06:33:30;;;;;;;10.13;4.22;;;21.80;45.20;;;;;;5049573;28;20196;-54
2022/12/07 06:36:06;;;;;;;10.30;4.25;;;21.80;45.20;;;;;;5050183;28;20219;-56
2022/12/07 06:38:37;;;;;;;10.60;4.88;;;21.80;45.20;;;;;;5049255;28;20195;-54
2022/12/07 06:41:07;;;;;;;11.18;5.20;;;21.80;45.30;;;;;;5049407;28;20223;-57
2022/12/07 06:43:38;;;;;;;10.45;4.68;;;21.80;45.30;;;;;;5048669;28;20195;-55
2022/12/07 06:46:09;;;;;;;13.65;5.32;;;21.80;45.30;;;;;;5047655;28;20613;-55
2022/12/07 06:48:39;;;;;;;12.93;5.35;;;21.80;45.30;;;;;;5048945;28;20206;-56
2022/12/07 06:51:12;;;;;;;11.77;5.65;;;21.80;45.40;;;;;;5029959;28;20584;-58
2022/12/07 06:53:43;;;;;;;11.13;5.22;;;21.80;45.40;;;;;;5043709;28;20950;-58
2022/12/07 06:56:14;;;;;;;14.45;5.60;;;21.70;45.40;;;;;;5049901;28;20219;-55
2022/12/07 06:58:45;;;;;;;16.42;6.30;;;21.70;45.40;;;;;;5048782;28;20191;-54
2022/12/07 07:01:16;;;;;;;12.40;5.97;;;21.80;45.40;;;;;;5049645;28;20220;-53
2022/12/07 07:03:48;;;;;;;16.15;5.97;;;21.70;45.40;;;;;;5049813;28;20199;-57
2022/12/07 07:06:21;;;;;;;13.23;5.85;;;21.70;45.40;;;;;;5049412;28;20550;-55
2022/12/07 07:08:51;;;;;;;14.48;5.75;;;21.70;45.50;;;;;;5049449;28;20664;-52
2022/12/07 07:11:22;;;;;;;9.40;4.57;;;21.70;45.50;;;;;;5049316;28;20223;-55
2022/12/07 07:13:53;;;;;;;10.95;5.30;;;21.70;45.50;;;;;;5049929;28;20203;-56
2022/12/07 07:16:24;;;;;;;15.93;5.40;;;21.70;45.50;;;;;;5049951;28;20223;-57
2022/12/07 07:18:54;;;;;;;12.85;5.50;;;21.60;45.50;;;;;;5050229;28;20655;-57
2022/12/07 07:21:27;;;;;;;13.18;5.45;;;21.60;45.50;;;;;;5049934;28;20212;-53
2022/12/07 07:23:58;;;;;;;11.05;4.57;;;21.60;45.50;;;;;;5049740;28;20199;-57
2022/12/07 07:26:29;;;;;;;9.40;4.85;;;21.60;45.60;;;;;;5049109;28;20207;-53
2022/12/07 07:28:59;;;;;;;12.50;5.70;;;21.60;45.60;;;;;;5050036;28;20206;-53
2022/12/07 07:31:30;;;;;;;13.00;5.13;;;21.60;45.60;;;;;;5049841;28;20224;-57
2022/12/07 07:34:01;;;;;;;11.75;5.10;;;21.60;45.60;;;;;;5052256;28;20199;-50
2022/12/07 07:36:34;;;;;;;12.10;5.45;;;21.60;45.60;;;;;;5053625;28;20219;-56
2022/12/07 07:39:05;;;;;;;10.32;5.43;;;21.60;45.70;;;;;;5053530;28;20675;-56
2022/12/07 07:41:36;;;;;;;8.38;4.53;;;21.60;45.70;;;;;;5052708;28;20219;-55
2022/12/07 07:44:07;;;;;;;10.95;4.95;;;21.60;45.70;;;;;;5052480;28;20585;-55
2022/12/07 07:46:37;;;;;;;10.45;5.15;;;21.50;45.70;;;;;;5052302;28;20188;-51
2022/12/07 07:49:08;;;;;;;11.18;5.43;;;21.50;45.70;;;;;;5052585;28;20192;-58
2022/12/07 07:51:41;;;;;;;12.05;5.43;;;21.50;45.80;;;;;;5052806;28;20721;-57
2022/12/07 07:54:13;;;;;;;9.18;4.30;;;21.50;45.80;;;;;;5052881;28;20203;-57
2022/12/07 07:56:43;;;;;;;12.43;5.10;;;21.50;45.80;;;;;;5052535;28;20223;-55
2022/12/07 07:59:14;;;;;;;11.45;4.93;;;21.50;45.80;;;;;;5052727;28;20207;-55
2022/12/07 08:01:45;;;;;;;9.43;4.60;;;21.50;45.80;;;;;;5052978;28;20220;-50
2022/12/07 08:04:15;;;;;;;9.00;4.60;;;21.50;45.80;;;;;;5053150;28;20275;-54
2022/12/07 08:06:48;;;;;;;9.98;4.78;;;21.50;45.90;;;;;;5052804;28;20196;-54
2022/12/07 08:09:19;;;;;;;8.98;4.63;;;21.50;45.90;;;;;;5052880;28;20605;-54
2022/12/07 08:11:49;;;;;;;10.48;4.78;;;21.40;45.80;;;;;;5052645;28;20228;-51
2022/12/07 08:14:20;;;;;;;11.65;5.53;;;21.40;45.90;;;;;;5052647;28;20207;-54
2022/12/07 08:16:51;;;;;;;10.00;5.45;;;21.40;45.90;;;;;;5052279;28;20234;-58
2022/12/07 08:19:22;;;;;;;10.20;5.35;;;21.40;45.90;;;;;;5052330;28;20191;-56
2022/12/07 08:21:55;;;;;;;9.45;4.80;;;21.40;45.90;;;;;;5052119;28;20680;-57
2022/12/07 08:24:26;;;;;;;10.02;4.68;;;21.40;45.90;;;;;;5052505;28;20242;-54
2022/12/07 08:26:57;;;;;;;10.30;5.28;;;21.30;45.80;;;;;;5052559;28;20659;-57
2022/12/07 08:29:28;;;;;;;11.35;5.03;;;21.40;46.00;;;;;;5052173;28;20198;-57
2022/12/07 08:32:00;;;;;;;9.05;4.90;;;21.40;46.00;;;;;;5051842;28;20214;-51
2022/12/07 08:34:31;;;;;;;12.70;5.50;;;21.40;46.10;;;;;;5052508;28;20567;-47
2022/12/07 08:37:03;;;;;;;10.15;4.85;;;21.30;46.00;;;;;;5052328;28;20230;-56
2022/12/07 08:39:34;;;;;;;10.43;4.70;;;21.30;46.00;;;;;;5051910;28;20210;-53
2022/12/07 08:42:05;;;;;;;9.40;4.82;;;21.30;46.10;;;;;;5052191;28;20223;-55
2022/12/07 08:44:36;;;;;;;9.43;5.03;;;21.30;46.10;;;;;;5051612;28;20428;-54
2022/12/07 08:47:09;;;;;;;10.90;4.00;;;21.30;46.10;;;;;;5051930;28;20203;-47
2022/12/07 08:49:44;;;;;;;7.68;4.55;;;21.30;46.10;;;;;;5051969;28;20203;-49
2022/12/07 08:52:19;;;;;;;8.70;4.57;;;21.30;46.20;;;;;;5052579;28;20310;-48
2022/12/07 08:54:51;;;;;;;11.43;5.10;;;21.20;46.10;;;;;;5052101;28;20659;-50
2022/12/07 08:57:22;;;;;;;9.50;4.07;;;21.20;46.10;;;;;;5051687;28;20226;-55
2022/12/07 08:59:52;;;;;;;10.73;4.55;;;21.20;46.10;;;;;;5047366;28;20210;-48
2022/12/07 09:02:23;;;;;;;7.70;3.88;;;21.20;46.10;;;;;;5049628;28;20215;-48
2022/12/07 09:04:54;;;;;;;7.50;3.88;;;21.20;46.10;;;;;;5041257;28;20200;-53
2022/12/07 09:07:27;;;;;;;8.60;4.00;;;21.20;46.20;;;;;;5034718;28;20213;-52
2022/12/07 09:09:58;;;;;;;9.55;4.30;;;21.20;46.20;;;;;;5050741;28;20200;-51
2022/12/07 09:12:29;;;;;;;7.85;4.00;;;21.20;46.20;;;;;;5031057;28;20219;-48
2022/12/07 09:15:00;;;;;;;9.30;3.90;;;21.20;46.10;;;;;;5050264;28;20210;-48
2022/12/07 09:17:34;;;;;;;6.65;3.55;;;21.10;46.10;;;;;;5037566;28;20224;-54
2022/12/07 09:20:04;;;;;;;5.78;3.08;;;21.10;46.10;;;;;;5051158;28;20208;-48
2022/12/07 09:22:37;;;;;;;9.13;3.90;;;21.10;46.10;;;;;;5070887;28;20275;-48
2022/12/07 09:25:08;;;;;;;7.57;3.50;;;21.10;46.20;;;;;;5050824;28;20195;-52
2022/12/07 09:27:39;;;;;;;8.38;3.60;;;21.10;46.20;;;;;;5050745;28;20286;-48
2022/12/07 09:30:10;;;;;;;9.15;3.97;;;21.00;46.20;;;;;;5050012;28;20551;-54
2022/12/07 09:32:41;;;;;;;6.35;3.38;;;21.00;46.80;;;;;;5051148;28;20211;-54
2022/12/07 09:35:12;;;;;;;6.47;3.70;;;21.10;46.20;;;;;;5050954;28;20203;-48
2022/12/07 09:37:45;;;;;;;8.52;3.58;;;21.00;46.20;;;;;;5050922;28;20227;-52
2022/12/07 09:40:16;;;;;;;6.15;3.50;;;21.00;46.30;;;;;;5050542;28;20191;-51
2022/12/07 09:42:50;;;;;;;5.50;3.30;;;21.00;46.30;;;;;;5049986;28;20211;-58
2022/12/07 09:45:23;;;;;;;6.53;3.20;;;21.00;46.30;;;;;;5030416;28;20195;-57
2022/12/07 09:47:54;;;;;;;8.65;3.90;;;21.00;46.30;;;;;;5048614;28;20199;-49
2022/12/07 09:50:29;;;;;;;5.03;3.13;;;20.90;46.30;;;;;;5029987;28;20211;-48
2022/12/07 09:53:11;;;;;;;5.60;3.38;;;21.00;46.30;;;;;;5034340;28;20218;-49
2022/12/07 09:55:43;;;;;;;7.10;3.42;;;21.00;46.30;;;;;;5049580;28;20199;-52
2022/12/07 09:58:21;;;;;;;6.15;3.50;;;21.00;46.30;;;;;;5049752;28;20199;-51
2022/12/07 10:00:55;;;;;;;6.20;3.63;;;20.90;46.30;;;;;;5049250;28;20199;-50
2022/12/07 10:03:26;;;;;;;6.70;3.88;;;20.90;46.30;;;;;;5049508;28;20195;-49
2022/12/07 10:05:57;;;;;;;8.35;3.88;;;20.90;46.30;;;;;;5049898;28;20210;-48
2022/12/07 10:08:30;;;;;;;7.70;3.88;;;20.90;46.40;;;;;;5049349;28;20599;-51
2022/12/07 10:11:03;;;;;;;7.30;3.42;;;20.90;46.40;;;;;;5050111;28;20208;-48
2022/12/07 10:13:39;;;;;;;7.38;3.75;;;20.90;46.40;;;;;;5050324;28;20202;-51
2022/12/07 10:16:29;;;;;;;7.20;3.97;;;20.90;46.40;;;;;;5050339;28;20227;-51
2022/12/07 10:19:19;;;;;;;7.40;3.83;;;20.90;46.40;;;;;;5049528;28;20658;-51
2022/12/07 10:22:08;;;;;;;8.38;3.83;;;20.90;46.40;;;;;;5050315;28;20211;-48
2022/12/07 10:24:42;;;;;;;6.70;3.50;;;20.80;46.40;;;;;;5049771;28;20202;-51
2022/12/07 10:27:23;;;;;;;5.75;3.63;;;20.80;46.40;;;;;;5050448;28;20199;-48
2022/12/07 10:29:57;;;;;;;5.07;3.22;;;20.80;46.40;;;;;;5048633;28;20195;-49
2022/12/07 10:32:37;;;;;;;6.93;4.10;;;20.80;46.40;;;;;;5049004;28;20223;-58
2022/12/07 10:35:27;;;;;;;5.00;3.42;;;20.80;47.00;;;;;;5049068;28;20196;-57
2022/12/07 10:38:00;;;;;;;5.35;3.53;;;20.70;46.40;;;;;;5048793;28;20219;-56
2022/12/07 10:40:36;;;;;;;6.38;3.90;;;20.70;46.40;;;;;;5049473;28;20196;-52
2022/12/07 10:43:21;;;;;;;6.90;3.58;;;20.70;46.50;;;;;;5050112;28;20229;-57
2022/12/07 10:46:22;;;;;;;6.78;4.03;;;20.70;46.50;;;;;;5030601;28;20210;-57
2022/12/07 10:49:05;;;;;;;6.22;3.72;;;20.70;46.50;;;;;;5030945;28;20698;-56
2022/12/07 10:51:44;;;;;;;6.35;3.63;;;20.70;46.50;;;;;;5030890;28;20242;-57
2022/12/07 10:54:21;;;;;;;6.63;3.85;;;20.70;46.50;;;;;;5030416;28;20555;-55
2022/12/07 10:57:10;;;;;;;6.68;3.80;;;20.70;46.50;;;;;;5030310;28;20718;-57
2022/12/07 10:59:53;;;;;;;5.40;3.30;;;20.70;46.60;;;;;;5029890;28;20201;-56
2022/12/07 11:02:56;;;;;;;5.72;3.70;;;20.60;46.40;;;;;;5047654;28;20714;-58
2022/12/07 11:05:31;;;;;;;6.82;3.80;;;20.60;46.50;;;;;;5050496;28;20259;-58
2022/12/07 11:08:12;;;;;;;5.80;3.58;;;20.60;46.50;;;;;;5052556;28;20199;-58
2022/12/07 11:10:51;;;;;;;6.63;3.55;;;20.60;46.50;;;;;;5053924;28;20199;-57
2022/12/07 11:13:32;;;;;;;5.95;3.75;;;20.60;46.60;;;;;;5054177;28;20291;-58
2022/12/07 11:16:18;;;;;;;5.72;3.33;;;20.60;46.60;;;;;;5054100;28;20195;-54
2022/12/07 11:19:01;;;;;;;7.35;3.72;;;20.60;46.60;;;;;;5054113;28;20202;-57
2022/12/07 11:21:39;;;;;;;6.00;3.60;;;20.60;46.60;;;;;;5053684;28;20273;-56
2022/12/07 11:24:16;;;;;;;7.20;4.00;;;20.50;46.60;;;;;;5053553;28;20199;-54
2022/12/07 11:27:02;;;;;;;7.28;3.50;;;20.50;46.60;;;;;;5053680;28;20195;-54
2022/12/07 11:29:55;;;;;;;6.65;3.65;;;20.50;46.70;;;;;;5054272;28;20196;-54
2022/12/07 11:32:41;;;;;;;4.95;3.08;;;20.50;46.60;;;;;;5053488;28;20290;-56
2022/12/07 11:35:22;;;;;;;4.55;2.92;;;20.50;46.60;;;;;;5053751;28;20192;-55
2022/12/07 11:37:57;;;;;;;4.90;3.10;;;20.50;46.60;;;;;;5053667;28;20235;-54
2022/12/07 11:40:34;;;;;;;5.63;3.15;;;20.50;46.60;;;;;;5053462;28;20198;-55
2022/12/07 11:43:13;;;;;;;5.68;3.55;;;20.50;46.60;;;;;;5053761;28;20223;-58
2022/12/07 11:45:49;;;;;;;5.68;3.55;;;20.40;46.60;;;;;;5053621;28;20671;-58
2022/12/07 11:48:25;;;;;;;4.55;3.10;;;20.40;46.60;;;;;;5053326;28;20198;-59
2022/12/07 11:50:59;;;;;;;5.90;3.35;;;20.40;46.60;;;;;;5053834;28;20202;-59
2022/12/07 11:53:35;;;;;;;6.28;3.03;;;20.40;46.60;;;;;;5053192;28;20664;-59
2022/12/07 11:56:11;;;;;;;4.40;2.88;;;20.40;46.70;;;;;;5053118;28;20657;-59
2022/12/07 11:58:51;;;;;;;6.00;3.05;;;20.40;46.70;;;;;;5053193;28;20195;-59
2022/12/07 12:01:44;;;;;;;5.35;3.63;;;20.40;46.70;;;;;;5052666;28;20230;-53
2022/12/07 12:04:34;;;;;;;5.45;3.17;;;20.30;46.70;;;;;;5052999;28;20195;-54
2022/12/07 12:07:05;;;;;;;4.68;3.17;;;20.30;46.70;;;;;;5053132;28;20196;-58
2022/12/07 12:09:43;;;;;;;5.15;2.80;;;20.30;46.70;;;;;;5052855;28;20196;-52
2022/12/07 12:12:38;;;;;;;4.70;2.83;;;20.30;46.70;;;;;;5052559;28;20694;-55
2022/12/07 12:15:26;;;;;;;4.32;2.75;;;20.30;46.70;;;;;;5053255;28;20199;-58
2022/12/07 12:18:26;;;;;;;4.95;2.90;;;20.30;46.70;;;;;;5051964;28;20230;-55
2022/12/07 12:21:01;;;;;;;5.15;2.47;;;20.30;46.70;;;;;;5047922;28;20253;-55
2022/12/07 12:23:39;;;;;;;4.40;2.70;;;20.30;46.80;;;;;;5052387;28;20195;-55
2022/12/07 12:26:16;;;;;;;4.88;2.70;;;20.20;46.80;;;;;;5052251;28;20214;-53
2022/12/07 12:28:55;;;;;;;5.03;2.67;;;20.20;46.80;;;;;;5052391;28;20572;-57
2022/12/07 12:31:49;;;;;;;5.80;3.17;;;20.20;46.80;;;;;;5052119;28;20211;-58
2022/12/07 12:34:43;;;;;;;6.68;2.97;;;20.20;46.80;;;;;;5050810;28;20207;-56
2022/12/07 12:37:44;;;;;;;4.82;2.70;;;20.20;46.80;;;;;;5051605;28;20227;-57
2022/12/07 12:40:47;;;;;;;4.38;2.38;;;20.20;46.80;;;;;;5052223;28;20202;-56
2022/12/07 12:43:45;;;;;;;4.25;2.40;;;20.20;46.80;;;;;;5052174;28;20721;-56
2022/12/07 12:46:47;;;;;;;5.07;2.85;;;20.20;46.80;;;;;;5048560;28;20199;-57
2022/12/07 12:50:02;;;;;;;3.92;2.63;;;20.20;46.80;;;;;;5052399;28;20206;-57
2022/12/07 12:53:01;;;;;;;3.88;2.25;;;20.20;46.90;;;;;;5052656;28;20250;-58
2022/12/07 12:56:09;;;;;;;3.38;2.30;;;20.10;46.80;;;;;;5052373;28;20667;-57
2022/12/07 12:58:43;;;;;;;4.68;2.47;;;20.10;46.80;;;;;;5051569;28;20219;-58
2022/12/07 13:01:49;;;;;;;3.88;2.65;;;20.10;46.80;;;;;;5051715;28;20199;-58
2022/12/07 13:04:47;;;;;;;3.75;2.40;;;20.10;46.90;;;;;;5052085;28;20214;-56
2022/12/07 13:07:58;;;;;;;3.40;2.30;;;20.10;46.90;;;;;;5026379;28;20204;-58
2022/12/07 13:10:42;;;;;;;4.07;2.45;;;20.10;46.90;;;;;;5035879;28;20210;-58
2022/12/07 13:13:36;;;;;;;3.83;2.60;;;20.10;46.90;;;;;;5051483;28;20574;-58
2022/12/07 13:16:41;;;;;;;4.32;2.72;;;20.00;46.80;;;;;;5042221;28;20207;-57
2022/12/07 13:20:02;;;;;;;5.20;2.65;;;20.00;46.90;;;;;;5051041;28;20191;-58
2022/12/07 13:22:52;;;;;;;3.75;2.33;;;20.00;46.90;;;;;;5051070;28;20212;-56
2022/12/07 13:25:34;;;;;;;4.70;2.70;;;20.00;46.90;;;;;;5051305;28;20230;-57
2022/12/07 13:28:16;;;;;;;4.20;2.45;;;20.00;46.90;;;;;;5051751;28;20206;-57
2022/12/07 13:31:10;;;;;;;3.78;2.53;;;20.00;46.90;;;;;;5051648;28;20328;-56